Whale Point, California Weather observations

Data are for observation ending at time listed.
 Day   Time    Ave.   Ave.  Ave.  Vector   Max.   Stn.    Total    Solar   Ave.  
  of    of     Air    Rel.  Wind   Wind    Wind   Baro.  Precip.   Rad.    Soil  
Year   Day     Temp.  Hum.  Speed  Dir.    Gust   Pres.                    Temp. 
2026   (PST)    F      %     mph   deg.    mph     mb.     in.     W/m2     F   
------------------------------------------------------------------------------
 122   10:40   46.7    80    3.2   232      5.8   994.0    0.00    1258    64.9
 122   10:50   46.6    81    2.9   228      5.3   994.1    0.00    1217    64.9
 122   11:00   47.4    80    1.8   242      4.0   994.1    0.00    1179    64.9
 122   11:10   48.5    77    2.1   229      5.4   994.0    0.00    1075    64.9
 122   11:20   48.7    77    2.6   221      4.7   993.9    0.00    1014    64.9
 122   11:30   49.6    76    1.8   240      4.5   993.8    0.00     951    64.9
 122   11:40   49.9    76    3.4   229      5.9   993.6    0.00     919    64.9
 122   11:50   50.3    76    3.1   219      6.9   993.5    0.00     883    65.0
 122   12:00   50.9    77    4.3   218      6.5   993.4    0.00     839    65.0
 122   12:10   52.1    76    3.5   229      6.1   993.2    0.00     815    65.0
 122   12:20   53.7    73    3.0   224      6.2   993.1    0.00     677    65.0
 122   12:30   54.9    70    3.3   230      6.9   992.9    0.00     536    65.0
 122   12:40   56.0    69    3.5   238      6.9   992.9    0.00     429    65.1
 122   12:50   56.5    68    4.0   229      7.4   992.9    0.00     425    65.2
 122   13:00   55.8    70    5.9   226      9.2   993.0    0.00     466    65.3
 122   13:10   55.9    74    5.1   223      8.9   993.0    0.00     592    65.4
 122   13:20   57.6    72    5.0   232      8.1   992.8    0.00     623    65.4
 122   13:30   57.8    71    4.4   233      9.3   992.6    0.00     669    65.5
 122   13:40   58.8    69    3.2   269      6.7   992.5    0.00     678    65.6
 122   13:50   58.0    68    5.3   280     10.7   992.4    0.00     665    65.7
 122   14:00   56.5    70    5.8   286     10.7   992.3    0.00     700    65.8
 122   14:10   57.3    70    4.9   283     11.3   992.3    0.00     780    65.9
 122   14:20   57.1    70    6.4   278     12.1   992.1    0.00     816    66.0
 122   14:30   56.6    71    7.2   279     13.1   992.0    0.00     849    66.1
 122   14:40   57.1    71    5.6   280     12.3   991.9    0.00     898    66.2
 122   14:50   57.8    70    5.4   279     11.5   991.7    0.00     910    66.4
 122   15:00   58.3    70    5.1   275     11.8   991.5    0.00     883    66.5
 122   15:10   57.4    72    5.7   272     13.2   991.3    0.00     907    66.7
 122   15:20   57.3    73    6.2   274     12.3   991.3    0.00     909    66.8
 122   15:30   56.7    75    6.0   289     10.7   991.3    0.00     920    67.0
 122   15:40   56.5    76    5.0   284     12.3   991.2    0.00     938    67.1
 122   15:50   55.5    79    5.5   278     11.4   991.2    0.00     977    67.3
 122   16:00   53.8    84    5.5   292     11.8   991.2    0.00    1057    67.4
 122   16:10   53.3    87    2.5   271      8.0   991.0    0.00    1229    67.6
 122   16:20   52.7    88    6.5   356     12.9   990.9    0.00    1354    67.7
 122   16:30   52.4    86    8.1   352     16.1   990.8    0.00    1471    67.8
 122   16:40   52.6    84    5.9     4     13.7   990.8    0.00    1632    67.9
 122   16:50   52.8    84    6.3   360     15.1   990.8    0.00    1786    68.0
 122   17:00   52.9    84    6.6   349     11.4   990.7    0.00    1892    68.1
 122   17:10   52.9    84    6.3   355     12.3   990.6    0.00    1988    68.1
 122   17:20   52.9    84    6.0     2     14.8   990.5    0.00    2063    68.2
 122   17:30   52.7    84    7.6   358     12.8   990.5    0.00    2113    68.3
 122   17:40   52.5    83    8.5   350     16.1   990.5    0.00    2177    68.3
 122   17:50   52.4    82    9.7   355     17.2   990.6    0.00    2219    68.3
 122   18:00   52.4    82   10.2   340     17.6   990.5    0.00    2267    68.3
 122   18:10   52.4    81    8.3   332     14.3   990.5    0.00    2295    68.3
 122   18:20   52.3    81    8.6   343     14.2   990.5    0.00    2342    68.3
 122   18:30   52.0    82   11.3   348     18.4   990.5    0.00    2366    68.3
 122   18:40   51.8    83   10.5   350     15.3   990.5    0.00    2397    68.3
 122   18:50   51.6    85    8.5   345     14.9   990.6    0.00    2423    68.3
 122   19:00   51.5    85   11.0   340     16.8   990.5    0.00    2458    68.2
 122   19:10   51.6    82    9.8   335     16.4   990.4    0.00    2458    68.2
 122   19:20   51.8    81    8.2   334     14.4   990.5    0.00    2496    68.1
 122   19:30   51.7    82    9.3   342     14.6   990.6    0.00    2501    68.1
 122   19:40   51.6    82    8.9   349     15.3   990.8    0.00    2486    68.1
 122   19:50   51.7    83    7.3   340     13.0   991.0    0.00    2479    68.0
 122   20:00   51.8    82    6.4   333     15.6   991.1    0.00    2455    67.9
 122   20:10   51.8    82    6.9   341     11.2   991.3    0.00    2456    67.9
 122   20:20   51.5    83    8.1   337     13.9   991.4    0.00    2471    67.8
 122   20:30   51.5    83    5.5   316     10.9   991.4    0.00    2466    67.8
 122   20:40   51.6    82    3.8   299      7.7   991.2    0.00    2465    67.7
 122   20:50   51.7    82    3.6   281      8.9   991.2    0.00    2428    67.6
 122   21:00   51.6    83    3.5   311      8.3   991.2    0.00    2425    67.6
 122   21:10   51.7    82    2.4   342      4.7   991.0    0.00    2415    67.5
 122   21:20   51.9    83    2.2    36      3.3   991.0    0.00    2395    67.4
 122   21:30   51.9    83    0.9    88      2.5   990.9    0.00    2388    67.4
 122   21:40   52.1    83    0.9   202      3.1   990.9    0.00    2393    67.3
 122   21:50   51.9    83    1.7   271      3.7   990.9    0.00    2397    67.2
 122   22:00   51.8    83    1.4   238      3.5   990.8    0.00    2380    67.2
 122   22:10   51.6    85    2.1   212      3.7   990.9    0.00    2381    67.1
 122   22:20   51.5    85    1.2   162      3.0   990.9    0.00    2393    67.0
 122   22:30   51.4    86    2.6   147      4.5   990.9    0.00    2409    67.0
 122   22:40   51.4    86    1.3   138      2.7   990.8    0.00    2406    66.9
 122   22:50   51.4    86    0.3   166      1.7   990.8    0.00    2413    66.9
 122   23:00   51.4    86    0.0     0      0.0   990.9    0.00    2381    66.8
 122   23:10   51.4    87    0.0    16      0.5   991.0    0.00    2379    66.7
 122   23:20   51.4    87    0.6   132      1.8   991.2    0.00    2410    66.7
 122   23:30   51.4    86    0.5   141      2.0   991.1    0.00    2410    66.6
 122   23:40   51.4    86    0.7   204      2.3   991.2    0.00    2428    66.6
 122   23:50   51.2    87    1.0   165      2.5   991.2    0.00    2429    66.5
 123    0:00   51.2    87    1.9   141      3.7   991.3    0.00    2427    66.5
 123    0:10   51.2    86    2.3   132      4.4   991.3    0.00    2410    66.4
 123    0:20   51.4    85    1.0   142      3.4   991.2    0.00    2411    66.4
 123    0:30   51.4    85    0.8   172      3.1   991.2    0.00    2411    66.3
 123    0:40   51.2    86    1.8   170      4.2   991.2    0.00    2431    66.3
 123    0:50   50.9    87    2.8   133      4.3   991.1    0.00    2443    66.2
 123    1:00   50.8    87    1.6   129      3.6   990.9    0.00    2438    66.2
 123    1:10   50.9    86    0.9    63      1.8   990.9    0.00    2427    66.1
 123    1:20   50.9    87    0.6   159      1.8   990.8    0.00    2468    66.1
 123    1:30   50.9    87    1.7    63      2.9   990.8    0.00    2466    66.0
 123    1:40   51.0    86    2.4    74      3.2   990.7    0.00    2457    66.0
 123    1:50   51.2    85    1.8   141      4.3   990.6    0.00    2480    65.9
 123    2:00   50.7    86    2.4   105      3.5   990.5    0.00    2495    65.8
 123    2:10   51.0    82    2.2    92      3.6   990.5    0.00    2474    65.8
 123    2:20   50.7    84    1.9   170      3.5   990.5    0.00    2541    65.8
 123    2:30   49.8    90    1.4   123      2.6   990.6    0.00    2578    65.7
 123    2:40   49.5    91    1.6   112      2.5   990.7    0.00    2635    65.7
 123    2:50   49.6    89    0.2   174      1.2   990.7    0.00    2705    65.6
 123    3:00   49.7    89    0.9     9      2.3   990.7    0.00    2728    65.6
 123    3:10   49.7    89    1.7    61      2.9   990.6    0.00    2764    65.5
 123    3:20   50.0    88    0.5    40      1.6   990.7    0.00    2780    65.5
 123    3:30   50.2    87    1.0    52      2.5   990.7    0.00    2779    65.4
 123    3:40   50.2    86    1.6    79      2.6   990.9    0.00    2783    65.4
 123    3:50   50.5    85    1.0    78      2.5   990.9    0.00    2770    65.3
 123    4:00   50.6    85    1.0    81      1.8   990.9    0.00    2743    65.3
 123    4:10   50.6    86    1.5   186      4.2   991.2    0.00    2729    65.2
 123    4:20   50.5    87    0.2   183      1.0   991.2    0.00    2725    65.2
 123    4:30   50.5    88    0.9    49      2.0   991.2    0.00    2691    65.1
 123    4:40   50.4    88    2.2    24      3.2   991.2    0.00    2653    65.1
 123    4:50   50.3    89    2.8    45      4.2   991.2    0.00    2643    65.0
 123    5:00   50.4    88    3.0    57      4.7   991.5    0.00    2618    64.9
 123    5:10   50.5    87    3.1    57      4.6   991.5    0.00    2592    64.9
 123    5:20   50.7    86    1.0   126      3.4   991.5    0.00    2609    64.8
 123    5:30   50.7    86    1.5   205      3.7   991.5    0.00    2597    64.8
 123    5:40   50.5    89    1.0   183      2.6   991.9    0.00    2604    64.8
 123    5:50   50.3    90    1.9   197      3.1   991.9    0.00    2597    64.7
 123    6:00   50.1    91    1.5   205      3.0   991.9    0.00    2582    64.7
 123    6:10   50.1    93    1.2   263      3.1   992.2    0.00    2566    64.6
 123    6:20   49.8    93    0.5   340      1.8   992.2    0.00    2564    64.6
 123    6:30   49.7    93    1.2   280      4.4   992.2    0.00    2550    64.5
 123    6:40   49.1    94    2.2   239      7.1   992.6    0.00    2539    64.5
 123    6:50   48.2    93    2.4   338      5.9   992.6    0.01    2529    64.5
 123    7:00   47.9    90    5.8    38     14.5   992.6    0.00    2527    64.5
 123    7:10   48.3    85    9.4    32     15.8   992.6    0.00    2553    64.4
 123    7:20   48.8    87    7.9    53     11.7   992.9    0.00    2653    64.4
 123    7:30   48.8    89    8.1    72     12.9   992.9    0.00    2694    64.3
 123    7:40   49.4    85    7.0    68     11.9   992.9    0.00    2693    64.3
 123    7:50   49.4    86    6.8    71     10.9   992.9    0.00    2691    64.3
 123    8:00   49.7    85    6.6    64     10.6   992.9    0.00    2666    64.3
 123    8:10   50.5    83    7.2    61     10.4   992.9    0.00    2614    64.2
 123    8:20   51.0    82    6.1    55      9.9   992.9    0.00    2571    64.2
 123    8:30   51.7    82    5.7    62      9.4   992.9    0.00    2545    64.1
 123    8:40   52.4    80    5.6    64     10.7   993.2    0.00    2414    64.1
 123    8:50   53.0    78    4.7    38      9.4   993.2    0.00    2265    64.1
 123    9:00   53.6    75    4.3    69      8.8   993.2    0.00    2101    64.0
 123    9:10   55.2    74    1.7   159      4.8   993.6    0.00    1927    64.0
 123    9:20   57.0    72    1.1   284      3.4   993.6    0.00    1743    64.0
 123    9:30   58.3    66    0.9   111      2.9   993.6    0.00    1453    64.0
 123    9:40   58.7    64    1.6   256      4.2   993.6    0.00    1232    64.0
 123    9:50   58.8    62    2.2   228      6.1   993.6    0.00    1046    64.0
 123   10:00   58.1    58    2.7   227      6.9   993.6    0.00     855    64.0
 123   10:10   58.8    57    1.7   275      7.2   993.6    0.00     756    64.0
 123   10:20   59.1    55    2.8   316      5.8   993.6    0.00     675    64.0
 123   10:30   58.8    55    2.7   308      6.5   993.6    0.00     659    64.0

Return to Whale Point graphs page.


Western Regional Climate Center,wrcc@dri.edu